River Junction, Iowa
Current Conditions -  °F | °C
As of 5:52 AM on Thursday 27 Nov 2014 (Local Time) from KIOW Reporting Station
Overcast Overcast  
Wind Chill:   Ceiling: 2100
Heat Index: 20°   Visibility: 10mi
Dew Point: 15°   Wind: 12mph
Humidity: 81%   Direction: 300°WNW
Pressure: 30.42"   Gusts: NA
Location:  41.5156°N, 91.4411°W
Report Text: KIOW 271152Z AUTO 30010KT 10SM BKN021 OVC029 M07/M09 A3042 RMK AO2 SLP312 60000 T10671094 11028 21072 51015
Loading
Personal Weather Stations






























Interactive Weather Map New forecast layout! Learn more

10-Day Weather Forecast

Advertisements
Track Severe Weather on mobile